createdAt,value
2019-04-27T00:06:13.473Z,100460.64
2019-04-27T00:08:49.663Z,100461.48
2019-04-27T00:11:23.461Z,100461.48
2019-04-27T00:13:54.444Z,100458.20
2019-04-27T00:16:47.152Z,100455.92
2019-04-27T00:19:35.544Z,100452.66
2019-04-27T00:22:14.759Z,100447.75
2019-04-27T00:24:46.047Z,100451.64
2019-04-27T00:27:17.004Z,100441.88
2019-04-27T00:29:48.831Z,100439.89
2019-04-27T00:32:19.905Z,100436.03
2019-04-27T00:34:53.158Z,100423.72
2019-04-27T00:37:44.967Z,100423.30
2019-04-27T00:40:20.393Z,100416.39
2019-04-27T00:42:54.028Z,100412.24
2019-04-27T00:45:24.857Z,100406.97
2019-04-27T00:47:59.677Z,100416.64
2019-04-27T00:50:29.234Z,100411.11
2019-04-27T00:53:00.055Z,100403.83
2019-04-27T00:55:33.308Z,100399.47
2019-04-27T00:58:32.927Z,100397.09
2019-04-27T01:01:24.087Z,100392.30
2019-04-27T01:03:58.874Z,100393.30
2019-04-27T01:06:30.212Z,100395.73
2019-04-27T01:09:03.362Z,100395.83
2019-04-27T01:11:36.075Z,100401.55
2019-04-27T01:14:07.329Z,100401.70
2019-04-27T01:16:39.213Z,100412.14
2019-04-27T01:19:10.541Z,100402.26
2019-04-27T01:21:42.215Z,100395.28
2019-04-27T01:24:13.473Z,100389.72
2019-04-27T01:26:59.992Z,100393.22
2019-04-27T01:29:31.674Z,100387.38
2019-04-27T01:32:03.511Z,100380.01
2019-04-27T01:34:34.765Z,100381.06
2019-04-27T01:37:05.849Z,100375.87
2019-04-27T01:39:38.674Z,100380.77
2019-04-27T01:42:10.612Z,100380.89
2019-04-27T01:44:42.504Z,100382.97
2019-04-27T01:47:13.490Z,100371.98
2019-04-27T01:49:44.792Z,100379.52
2019-04-27T01:52:15.874Z,100377.56
2019-04-27T01:54:47.274Z,100385.26
2019-04-27T01:57:19.412Z,100381.19
2019-04-27T01:59:51.146Z,100380.42
2019-04-27T02:02:29.696Z,100389.87
2019-04-27T02:05:20.038Z,100391.08
2019-04-27T02:07:51.329Z,100386.16
2019-04-27T02:10:22.408Z,100385.87
2019-04-27T02:12:53.439Z,100382.42
2019-04-27T02:15:24.612Z,100385.30
2019-04-27T02:17:55.650Z,100368.75
2019-04-27T02:20:28.285Z,100376.80
2019-04-27T02:22:59.569Z,100383.91
2019-04-27T02:25:30.645Z,100392.24
2019-04-27T02:28:09.313Z,100388.58
2019-04-27T02:30:58.345Z,100389.55
2019-04-27T02:33:40.196Z,100394.59
2019-04-27T02:36:14.813Z,100397.39
2019-04-27T02:38:43.852Z,100396.25
2019-04-27T02:41:14.912Z,100397.23
2019-04-27T02:44:10.983Z,100392.70
2019-04-27T02:46:42.838Z,100390.16
2019-04-27T02:49:14.005Z,100382.38
2019-04-27T02:52:20.050Z,100382.97
2019-04-27T02:54:51.425Z,100381.31
2019-04-27T02:57:22.543Z,100386.05
2019-04-27T02:59:53.599Z,100381.17
2019-04-27T03:02:30.272Z,100384.73
2019-04-27T03:05:01.398Z,100385.05
2019-04-27T03:07:32.493Z,100387.03
2019-04-27T03:10:03.576Z,100378.67
2019-04-27T03:12:42.410Z,100376.22
2019-04-27T03:15:32.854Z,100373.10
2019-04-27T03:18:10.115Z,100373.13
2019-04-27T03:21:00.298Z,100377.50
2019-04-27T03:23:32.064Z,100375.96
2019-04-27T03:26:30.987Z,100376.22
2019-04-27T03:29:01.203Z,100374.02
2019-04-27T03:31:33.253Z,100373.77
2019-04-27T03:34:05.955Z,100371.67
2019-04-27T03:36:39.559Z,100378.38
2019-04-27T03:39:10.437Z,100375.85
2019-04-27T03:41:41.903Z,100369.77
2019-04-27T03:44:13.211Z,100369.28
2019-04-27T03:46:44.256Z,100370.45
2019-04-27T03:49:31.781Z,100369.80
2019-04-27T03:51:54.721Z,100366.68
2019-04-27T03:54:32.298Z,100359.16
2019-04-27T03:57:09.925Z,100358.54
2019-04-27T04:00:01.013Z,100361.55
2019-04-27T04:02:32.333Z,100359.86
2019-04-27T04:05:03.509Z,100360.85
2019-04-27T04:07:34.596Z,100356.48
2019-04-27T04:10:05.946Z,100360.66
2019-04-27T04:12:44.259Z,100358.70
2019-04-27T04:15:33.297Z,100362.02
2019-04-27T04:18:04.522Z,100370.89
2019-04-27T04:20:35.769Z,100369.18
2019-04-27T04:23:06.736Z,100371.34
2019-04-27T04:25:40.882Z,100371.45
2019-04-27T04:28:11.490Z,100366.17
2019-04-27T04:30:43.075Z,100363.45
2019-04-27T04:33:14.167Z,100374.61
2019-04-27T04:35:45.157Z,100366.25
2019-04-27T04:38:20.330Z,100367.66
2019-04-27T04:40:59.112Z,100367.05
2019-04-27T04:43:40.175Z,100363.56
2019-04-27T04:46:29.868Z,100359.47
2019-04-27T04:49:01.302Z,100365.75
2019-04-27T04:51:32.747Z,100369.91
2019-04-27T04:54:04.065Z,100364.70
2019-04-27T04:56:35.821Z,100365.41
2019-04-27T04:59:06.889Z,100365.06
2019-04-27T05:01:39.910Z,100370.49
2019-04-27T05:04:11.273Z,100369.30
2019-04-27T05:06:42.880Z,100363.56
2019-04-27T05:09:14.106Z,100369.72
2019-04-27T05:11:45.174Z,100366.13
2019-04-27T05:14:16.147Z,100363.41
2019-04-27T05:16:48.800Z,100364.89
2019-04-27T05:19:20.068Z,100364.59
2019-04-27T05:21:51.595Z,100362.13
2019-04-27T05:24:22.857Z,100359.59
2019-04-27T05:26:54.084Z,100357.72
2019-04-27T05:29:25.346Z,100352.06
2019-04-27T05:31:56.704Z,100345.45
2019-04-27T05:34:29.273Z,100351.66
2019-04-27T05:37:01.116Z,100347.06
2019-04-27T05:39:33.040Z,100345.34
2019-04-27T05:42:04.099Z,100345.55
2019-04-27T05:45:02.151Z,100348.00
2019-04-27T05:47:43.453Z,100344.30
2019-04-27T05:50:20.040Z,100347.71
2019-04-27T05:53:09.824Z,100349.80
2019-04-27T05:55:41.321Z,100348.19
2019-04-27T05:58:12.898Z,100343.38
2019-04-27T06:00:44.413Z,100341.94
2019-04-27T06:03:15.685Z,100335.87
2019-04-27T06:05:46.947Z,100340.34
2019-04-27T06:08:18.763Z,100343.66
2019-04-27T06:10:50.685Z,100347.91
2019-04-27T06:13:22.144Z,100346.48
2019-04-27T06:15:53.104Z,100340.66
2019-04-27T06:18:24.409Z,100337.11
2019-04-27T06:20:56.043Z,100334.47
2019-04-27T06:23:28.903Z,100335.49
2019-04-27T06:26:01.808Z,100332.72
2019-04-27T06:28:33.053Z,100342.52
2019-04-27T06:31:04.398Z,100338.26
2019-04-27T06:33:35.488Z,100347.21
2019-04-27T06:36:06.629Z,100343.19
2019-04-27T06:38:39.374Z,100349.97
2019-04-27T06:41:10.861Z,100337.88
2019-04-27T06:43:41.854Z,100343.69
2019-04-27T06:46:13.531Z,100343.00
2019-04-27T06:48:45.376Z,100330.92
2019-04-27T06:51:16.341Z,100330.82
2019-04-27T06:53:47.396Z,100329.81
2019-04-27T06:56:18.581Z,100324.77
2019-04-27T06:58:50.175Z,100328.05
2019-04-27T07:01:21.579Z,100323.62
2019-04-27T07:03:52.699Z,100319.20
2019-04-27T07:06:23.851Z,100320.83
2019-04-27T07:08:55.278Z,100323.21
2019-04-27T07:11:26.424Z,100323.45
2019-04-27T07:13:59.402Z,100321.49
2019-04-27T07:16:30.585Z,100319.09
2019-04-27T07:19:02.562Z,100323.99
2019-04-27T07:21:33.959Z,100317.92
2019-04-27T07:24:05.328Z,100314.63
2019-04-27T07:26:36.300Z,100317.89
2019-04-27T07:29:09.365Z,100317.93
2019-04-27T07:31:40.415Z,100310.13
2019-04-27T07:34:11.431Z,100313.72
2019-04-27T07:36:43.306Z,100307.75
2019-04-27T07:39:14.590Z,100303.36
2019-04-27T07:41:45.671Z,100302.77
2019-04-27T07:44:34.378Z,100304.93
2019-04-27T07:47:19.552Z,100304.25
2019-04-27T07:49:50.661Z,100300.84
2019-04-27T07:52:21.814Z,100297.57
2019-04-27T07:54:53.210Z,100292.14
2019-04-27T07:57:24.241Z,100286.30
2019-04-27T07:59:55.291Z,100290.51
2019-04-27T08:02:26.230Z,100292.03
2019-04-27T08:04:57.230Z,100285.76
2019-04-27T08:07:29.151Z,100291.13
2019-04-27T08:10:01.649Z,100286.18
2019-04-27T08:12:32.817Z,100284.08
2019-04-27T08:15:04.633Z,100282.91
2019-04-27T08:17:36.700Z,100274.69
2019-04-27T08:20:09.294Z,100275.77
2019-04-27T08:22:40.284Z,100273.74
2019-04-27T08:25:11.635Z,100269.12
2019-04-27T08:28:10.352Z,100271.77
2019-04-27T08:31:03.152Z,100264.23
2019-04-27T08:33:34.417Z,100262.19
2019-04-27T08:36:05.641Z,100264.23
2019-04-27T08:38:36.674Z,100262.78
2019-04-27T08:41:09.009Z,100255.45
2019-04-27T08:43:40.443Z,100253.87
2019-04-27T08:46:11.411Z,100253.45
2019-04-27T08:48:43.538Z,100242.29
2019-04-27T08:51:14.837Z,100241.98
2019-04-27T08:53:45.862Z,100245.64
2019-04-27T08:56:16.842Z,100240.57
2019-04-27T08:58:49.536Z,100238.96
2019-04-27T09:01:21.839Z,100244.66
2019-04-27T09:03:52.847Z,100236.70
2019-04-27T09:06:23.799Z,100235.23
2019-04-27T09:09:01.193Z,100235.91
2019-04-27T09:11:50.785Z,100235.19
2019-04-27T09:14:41.877Z,100229.27
2019-04-27T09:17:19.350Z,100224.14
2019-04-27T09:20:12.651Z,100225.63
2019-04-27T09:22:44.012Z,100228.48
2019-04-27T09:25:15.080Z,100230.89
2019-04-27T09:27:46.424Z,100228.45
2019-04-27T09:30:19.067Z,100224.05
2019-04-27T09:32:51.202Z,100220.16
2019-04-27T09:35:22.293Z,100218.16
2019-04-27T09:37:53.242Z,100213.73
2019-04-27T09:40:24.305Z,100219.61
2019-04-27T09:42:57.274Z,100212.88
2019-04-27T09:45:28.260Z,100210.00
2019-04-27T09:48:00.227Z,100218.73
2019-04-27T09:50:31.319Z,100205.00
2019-04-27T09:53:02.928Z,100203.93
2019-04-27T09:55:33.891Z,100204.70
2019-04-27T09:58:05.759Z,100200.90
2019-04-27T10:00:38.016Z,100200.23
2019-04-27T10:03:09.002Z,100199.02
2019-04-27T10:05:39.965Z,100184.89
2019-04-27T10:08:11.451Z,100184.37
2019-04-27T10:10:42.661Z,100182.83
2019-04-27T10:13:13.914Z,100175.02
2019-04-27T10:15:46.030Z,100175.87
2019-04-27T10:18:17.381Z,100169.16
2019-04-27T10:20:58.978Z,100163.42
2019-04-27T10:23:21.258Z,100171.38
2019-04-27T10:25:52.910Z,100156.75
2019-04-27T10:28:24.153Z,100163.99
2019-04-27T10:30:55.773Z,100160.06
2019-04-27T10:33:28.001Z,100158.30
2019-04-27T10:35:59.034Z,100157.25
2019-04-27T10:38:30.393Z,100162.80
2019-04-27T10:41:01.761Z,100164.91
2019-04-27T10:43:33.156Z,100150.55
2019-04-27T10:46:04.487Z,100155.93
2019-04-27T10:48:36.721Z,100149.22
2019-04-27T10:51:09.388Z,100145.43
2019-04-27T10:53:40.640Z,100152.42
2019-04-27T10:56:12.027Z,100156.89
2019-04-27T10:58:43.193Z,100139.34
2019-04-27T11:01:15.603Z,100147.17
2019-04-27T11:04:01.671Z,100136.42
2019-04-27T11:06:35.538Z,100139.86
2019-04-27T11:09:09.067Z,100145.41
2019-04-27T11:11:40.215Z,100142.27
2019-04-27T11:14:11.695Z,100146.48
2019-04-27T11:16:42.858Z,100143.54
2019-04-27T11:19:13.958Z,100138.34
2019-04-27T11:21:45.058Z,100142.37
2019-04-27T11:24:16.143Z,100132.72
2019-04-27T11:26:47.455Z,100136.03
2019-04-27T11:29:18.416Z,100122.57
2019-04-27T11:31:49.419Z,100120.73
2019-04-27T11:34:22.688Z,100130.59
2019-04-27T11:37:01.927Z,100135.70
2019-04-27T11:39:33.943Z,100113.11
2019-04-27T11:42:05.103Z,100115.27
2019-04-27T11:44:36.876Z,100118.30
2019-04-27T11:47:08.113Z,100113.05
2019-04-27T11:49:40.915Z,100113.70
2019-04-27T11:52:12.654Z,100112.41
2019-04-27T11:54:45.655Z,100106.95
2019-04-27T11:57:16.899Z,100117.16
2019-04-27T11:59:48.282Z,100108.42
2019-04-27T12:02:19.350Z,100107.81
2019-04-27T12:04:50.563Z,100111.91
2019-04-27T12:07:21.712Z,100110.31
2019-04-27T12:09:55.554Z,100104.39
2019-04-27T12:12:26.982Z,100102.59
2019-04-27T12:14:58.058Z,100099.40
2019-04-27T12:17:29.376Z,100105.41
2019-04-27T12:20:00.317Z,100101.15
2019-04-27T12:22:31.917Z,100094.18
2019-04-27T12:25:03.037Z,100098.48
2019-04-27T12:27:55.893Z,100087.89
2019-04-27T12:30:52.023Z,100088.19
2019-04-27T12:33:25.646Z,100088.48
2019-04-27T12:35:57.029Z,100080.30
2019-04-27T12:38:28.458Z,100075.74
2019-04-27T12:40:59.649Z,100070.45
2019-04-27T12:43:31.089Z,100080.30
2019-04-27T12:46:02.725Z,100069.80
2019-04-27T12:48:37.154Z,100074.26
2019-04-27T12:51:07.442Z,100076.36
2019-04-27T12:53:52.968Z,100078.70
2019-04-27T12:56:46.325Z,100084.39
2019-04-27T12:59:36.562Z,100085.38
2019-04-27T13:02:08.472Z,100109.20
2019-04-27T13:04:39.533Z,100108.75
2019-04-27T13:07:11.941Z,100110.15
2019-04-27T13:09:43.345Z,100115.36
2019-04-27T13:12:14.979Z,100119.23
2019-04-27T13:14:46.504Z,100112.56
2019-04-27T13:17:17.730Z,100112.80
2019-04-27T13:19:49.147Z,100113.81
2019-04-27T13:22:20.170Z,100110.30
2019-04-27T13:24:51.808Z,100112.16
2019-04-27T13:27:22.805Z,100103.02
2019-04-27T13:29:53.789Z,100113.97
2019-04-27T13:32:26.491Z,100104.17
2019-04-27T13:34:57.812Z,100099.70
2019-04-27T13:37:55.963Z,100113.67
2019-04-27T13:40:27.378Z,100103.55
2019-04-27T13:43:09.387Z,100099.89
2019-04-27T13:46:05.443Z,100101.44
2019-04-27T13:48:55.966Z,100107.39
2019-04-27T13:51:48.915Z,100100.04
2019-04-27T13:54:26.121Z,100100.04
2019-04-27T13:56:52.907Z,100104.17
2019-04-27T13:59:23.960Z,100097.89
2019-04-27T14:01:55.025Z,100101.55
2019-04-27T14:04:26.372Z,100101.11
2019-04-27T14:06:58.999Z,100104.34
2019-04-27T14:09:31.056Z,100105.13
2019-04-27T14:12:18.758Z,100107.14
2019-04-27T14:14:51.869Z,100113.14
2019-04-27T14:17:23.330Z,100119.97
2019-04-27T14:19:54.611Z,100122.42
2019-04-27T14:22:25.786Z,100110.43
2019-04-27T14:24:58.380Z,100106.59
2019-04-27T14:27:36.751Z,100104.23
2019-04-27T14:30:09.124Z,100105.11
2019-04-27T14:32:42.283Z,100103.05
2019-04-27T14:35:12.921Z,100105.54
2019-04-27T14:37:47.448Z,100101.20
2019-04-27T14:40:18.549Z,100098.67
2019-04-27T14:42:50.532Z,100103.05
2019-04-27T14:45:22.483Z,100108.51
2019-04-27T14:47:53.574Z,100105.46
2019-04-27T14:50:24.963Z,100102.97
2019-04-27T14:52:59.039Z,100104.55
2019-04-27T14:55:30.487Z,100102.09
2019-04-27T14:58:01.980Z,100100.27
2019-04-27T15:00:33.433Z,100101.02
2019-04-27T15:03:04.473Z,100096.59
2019-04-27T15:05:35.833Z,100096.59
2019-04-27T15:08:09.754Z,100105.42
2019-04-27T15:10:40.419Z,100107.45
2019-04-27T15:13:11.896Z,100124.09
2019-04-27T15:15:43.370Z,100127.54
2019-04-27T15:18:14.990Z,100127.91
2019-04-27T15:20:46.756Z,100128.37
2019-04-27T15:23:17.793Z,100130.05
2019-04-27T15:25:50.001Z,100125.68
2019-04-27T15:28:25.512Z,100130.20
2019-04-27T15:31:25.362Z,100131.95
2019-04-27T15:34:27.497Z,100132.85
2019-04-27T15:37:15.747Z,100135.63
2019-04-27T15:40:10.110Z,100155.47
2019-04-27T15:42:52.919Z,100157.19
2019-04-27T15:45:24.441Z,100159.19
2019-04-27T15:47:55.954Z,100161.91
2019-04-27T15:50:28.507Z,100154.16
2019-04-27T15:53:02.887Z,100168.03
2019-04-27T15:55:36.989Z,100162.61
2019-04-27T15:58:05.557Z,100177.33
2019-04-27T16:00:38.308Z,100173.41
2019-04-27T16:03:09.898Z,100166.13
2019-04-27T16:05:41.007Z,100177.22
2019-04-27T16:08:15.276Z,100177.38
2019-04-27T16:10:45.665Z,100169.02
2019-04-27T16:13:18.857Z,100168.72
2019-04-27T16:15:54.203Z,100168.72
2019-04-27T16:18:24.577Z,100175.48
2019-04-27T16:20:56.125Z,100175.25
2019-04-27T16:23:28.380Z,100168.22
2019-04-27T16:26:00.641Z,100169.42
2019-04-27T16:28:32.666Z,100170.04
2019-04-27T16:31:03.769Z,100168.72
2019-04-27T16:33:34.909Z,100167.36
2019-04-27T16:36:07.251Z,100170.83
2019-04-27T16:38:48.398Z,100156.34
2019-04-27T16:41:19.359Z,100176.55
2019-04-27T16:43:50.733Z,100174.43
2019-04-27T16:46:21.978Z,100169.20
2019-04-27T16:48:53.815Z,100171.56
2019-04-27T16:51:25.573Z,100166.06
2019-04-27T16:53:58.431Z,100205.83
2019-04-27T16:56:29.498Z,100202.21
2019-04-27T16:59:11.405Z,100212.72
2019-04-27T17:01:34.952Z,100220.91
2019-04-27T17:04:06.398Z,100231.08
2019-04-27T17:06:45.669Z,100233.31
2019-04-27T17:09:11.992Z,100228.51
2019-04-27T17:11:50.006Z,100237.19
2019-04-27T17:14:26.545Z,100236.27
2019-04-27T17:17:21.270Z,100240.14
2019-04-27T17:19:55.242Z,100242.87
2019-04-27T17:22:26.540Z,100238.50
2019-04-27T17:24:58.194Z,100249.98
2019-04-27T17:27:38.224Z,100246.57
2019-04-27T17:30:09.794Z,100251.41
2019-04-27T17:32:51.030Z,100255.48
2019-04-27T17:35:22.210Z,100258.19
2019-04-27T17:37:54.531Z,100264.13
2019-04-27T17:40:29.995Z,100269.11
2019-04-27T17:42:59.748Z,100266.94
2019-04-27T17:45:36.374Z,100272.76
2019-04-27T17:48:07.439Z,100270.36
2019-04-27T17:50:38.701Z,100277.50
2019-04-27T17:53:10.018Z,100281.06
2019-04-27T17:55:41.452Z,100287.51
2019-04-27T17:58:12.613Z,100286.45
2019-04-27T18:00:44.747Z,100285.02
2019-04-27T18:03:17.543Z,100288.21
2019-04-27T18:05:51.857Z,100284.98
2019-04-27T18:08:25.085Z,100299.54
2019-04-27T18:11:00.655Z,100296.34
2019-04-27T18:13:28.869Z,100309.70
2019-04-27T18:15:59.891Z,100310.73
2019-04-27T18:18:49.209Z,100319.55
2019-04-27T18:21:25.058Z,100329.64
2019-04-27T18:24:01.551Z,100330.41
2019-04-27T18:26:49.474Z,100327.31
2019-04-27T18:29:14.537Z,100331.28
2019-04-27T18:31:46.372Z,100338.80
2019-04-27T18:34:19.054Z,100334.63
2019-04-27T18:36:50.138Z,100336.05
2019-04-27T18:39:21.083Z,100330.57
2019-04-27T18:41:54.332Z,100335.73
2019-04-27T18:44:30.535Z,100335.69
2019-04-27T18:47:02.350Z,100340.05
2019-04-27T18:49:50.977Z,100333.80
2019-04-27T18:52:47.521Z,100335.84
2019-04-27T18:55:16.887Z,100335.87
2019-04-27T18:57:51.085Z,100337.30
2019-04-27T19:00:21.803Z,100329.28
2019-04-27T19:02:53.071Z,100323.30
2019-04-27T19:05:37.324Z,100336.46
2019-04-27T19:07:57.339Z,100346.84
2019-04-27T19:10:29.016Z,100359.23
2019-04-27T19:13:00.330Z,100362.69
2019-04-27T19:15:31.455Z,100356.84
2019-04-27T19:18:02.813Z,100362.59
2019-04-27T19:20:35.087Z,100367.55
2019-04-27T19:23:06.107Z,100367.05
2019-04-27T19:25:50.055Z,100365.83
2019-04-27T19:28:48.142Z,100364.81
2019-04-27T19:31:24.551Z,100373.47
2019-04-27T19:33:55.729Z,100370.42
2019-04-27T19:36:30.238Z,100369.84
2019-04-27T19:39:01.100Z,100380.73
2019-04-27T19:41:33.668Z,100381.55
2019-04-27T19:44:04.742Z,100378.12
2019-04-27T19:46:35.830Z,100380.03
2019-04-27T19:49:08.760Z,100383.97
2019-04-27T19:51:39.903Z,100388.66
2019-04-27T19:54:10.914Z,100390.96
2019-04-27T19:56:42.132Z,100386.14
2019-04-27T19:59:21.164Z,100387.53
2019-04-27T20:01:53.802Z,100384.43
2019-04-27T20:04:33.500Z,100392.28
2019-04-27T20:07:04.559Z,100388.72
2019-04-27T20:09:58.341Z,100391.21
2019-04-27T20:12:31.189Z,100393.06
2019-04-27T20:15:02.495Z,100392.03
2019-04-27T20:17:34.750Z,100395.24
2019-04-27T20:20:07.109Z,100394.45
2019-04-27T20:22:38.103Z,100394.56
2019-04-27T20:25:11.235Z,100392.70
2019-04-27T20:27:49.545Z,100393.94
2019-04-27T20:30:20.927Z,100392.47
2019-04-27T20:32:52.047Z,100397.64
2019-04-27T20:35:23.058Z,100400.72
2019-04-27T20:37:54.366Z,100408.32
2019-04-27T20:40:25.361Z,100403.73
2019-04-27T20:42:56.926Z,100403.26
2019-04-27T20:45:28.516Z,100397.75
2019-04-27T20:48:01.119Z,100398.27
2019-04-27T20:50:32.975Z,100393.85
2019-04-27T20:53:07.606Z,100387.40
2019-04-27T20:55:38.545Z,100390.19
2019-04-27T20:58:11.192Z,100389.97
2019-04-27T21:00:42.271Z,100399.55
2019-04-27T21:03:33.652Z,100398.56
2019-04-27T21:06:24.886Z,100398.30
2019-04-27T21:08:55.863Z,100408.86
2019-04-27T21:11:42.594Z,100406.85
2019-04-27T21:14:13.603Z,100407.14
2019-04-27T21:16:44.757Z,100404.20
2019-04-27T21:19:16.161Z,100393.08
2019-04-27T21:21:47.459Z,100395.62
2019-04-27T21:24:18.514Z,100399.95
2019-04-27T21:26:51.258Z,100399.87
2019-04-27T21:29:22.456Z,100399.70
2019-04-27T21:31:53.791Z,100394.17
2019-04-27T21:34:25.452Z,100398.62
2019-04-27T21:36:56.873Z,100393.23
2019-04-27T21:39:27.871Z,100395.40
2019-04-27T21:41:58.851Z,100393.55
2019-04-27T21:44:31.807Z,100397.75
2019-04-27T21:47:02.932Z,100401.50
2019-04-27T21:49:34.230Z,100407.00
2019-04-27T21:52:14.466Z,100411.53
2019-04-27T21:54:44.743Z,100412.55
2019-04-27T21:57:15.782Z,100412.44
2019-04-27T21:59:46.996Z,100409.06
2019-04-27T22:02:19.624Z,100415.30
2019-04-27T22:04:52.380Z,100412.84
2019-04-27T22:07:23.385Z,100407.46
2019-04-27T22:09:54.399Z,100412.14
2019-04-27T22:12:25.687Z,100406.00
2019-04-27T22:14:56.976Z,100417.64
2019-04-27T22:17:28.049Z,100407.63
2019-04-27T22:20:01.466Z,100412.43
2019-04-27T22:22:41.410Z,100414.05
2019-04-27T22:25:12.445Z,100422.80
2019-04-27T22:27:43.441Z,100422.07
2019-04-27T22:30:14.447Z,100428.26
2019-04-27T22:32:45.700Z,100433.66
2019-04-27T22:35:16.818Z,100434.20
2019-04-27T22:37:48.756Z,100440.13
2019-04-27T22:40:42.009Z,100440.55
2019-04-27T22:43:38.451Z,100440.55
2019-04-27T22:46:11.812Z,100445.91
2019-04-27T22:48:42.847Z,100445.77
2019-04-27T22:51:13.779Z,100445.77
2019-04-27T22:53:46.066Z,100458.25
2019-04-27T22:56:18.993Z,100460.63
2019-04-27T22:59:00.610Z,100451.35
2019-04-27T23:01:38.766Z,100467.14
2019-04-27T23:04:11.905Z,100462.01
2019-04-27T23:06:42.850Z,100466.30
2019-04-27T23:09:14.356Z,100474.80
2019-04-27T23:11:45.317Z,100479.72
2019-04-27T23:14:16.984Z,100477.30
2019-04-27T23:16:50.004Z,100484.59
2019-04-27T23:19:21.089Z,100488.22
2019-04-27T23:21:53.259Z,100486.59
2019-04-27T23:24:24.519Z,100484.94
2019-04-27T23:26:55.782Z,100490.08
2019-04-27T23:29:26.748Z,100486.92
2019-04-27T23:32:12.313Z,100469.26
2019-04-27T23:34:43.262Z,100482.19
2019-04-27T23:37:14.637Z,100485.75
2019-04-27T23:39:46.577Z,100482.33
2019-04-27T23:42:17.929Z,100487.70
2019-04-27T23:44:49.118Z,100490.34
2019-04-27T23:47:20.542Z,100486.22
2019-04-27T23:49:51.534Z,100489.19
2019-04-27T23:52:42.475Z,100489.48
2019-04-27T23:55:13.448Z,100491.19
2019-04-27T23:57:44.779Z,100497.95
